CBJ8 weather

Public forecast

Using degrees Celsius for public forecast. Weather courtesy of forecast.io.

Closest aviation weather report (METAR) to Fraser Lake Seaplane Base

Closest report is Prince George Airport, 78.5 nm (145.5 km) E. Retrieved 2020/08/14 05:00 UTC (7 minutes ago):

CYXS 140500Z AUTO 18002KT 9SM OVC085 13/09 A3002 RMK SLP180 DENSITY ALT 2300FT

Closest aviation forecast (TAF) to Fraser Lake Seaplane Base

Closest forecast is Prince George Airport, 78.5 nm (145.5 km) E. Retrieved 2020-08-14 01:42 UTC (3 hours ago):

TAF CYXS 140038Z 1401/1413 18008KT P6SM FEW060 FM140600 18006KT P6SM BKN060 BKN160 FM141200 18010KT P6SM -SHRA OVC040 RMK FCST BASED ON AUTO OBS NXT FCST BY 140700Z